Time;durP1;ratioP1;P1;durP2;ratioP2;P2;SDS_P1;SDS_P2;PMS_P1;PMS_P2;Temp;Humidity;BMP_temperature;BMP_pressure;BME280_temperature;BME280_humidity;BME280_pressure;Samples;Min_cycle;Max_cycle;Signal;HPM_P1;HPM_P2
2022/02/20 00:00:19;;;;;;;0.65;0.30;;;;;;;;;;5072492;28;20040;-39
2022/02/20 00:02:45;;;;;;;0.20;0.20;;;;;;;;;;5072056;28;20414;-39
2022/02/20 00:05:10;;;;;;;1.08;0.40;;;;;;;;;;5072226;28;20048;-39
2022/02/20 00:07:37;;;;;;;1.00;0.52;;;;;;;;;;5072294;28;20099;-39
2022/02/20 00:10:03;;;;;;;0.65;0.30;;;;;;;;;;5071819;28;20685;-39
2022/02/20 00:12:28;;;;;;;0.30;0.30;;;;;;;;;;5072082;28;20074;-39
2022/02/20 00:14:54;;;;;;;1.05;0.45;;;;;;;;;;5071726;28;20020;-44
2022/02/20 00:17:20;;;;;;;0.75;0.50;;;;;;;;;;5072153;28;20125;-39
2022/02/20 00:19:46;;;;;;;0.30;0.30;;;;;;;;;;5069863;28;20051;-39
2022/02/20 00:22:11;;;;;;;0.40;0.30;;;;;;;;;;5071810;28;20024;-39
2022/02/20 00:24:37;;;;;;;0.73;0.43;;;;;;;;;;5071826;28;20032;-39
2022/02/20 00:27:03;;;;;;;0.20;0.20;;;;;;;;;;5071615;28;20020;-40
2022/02/20 00:29:28;;;;;;;0.20;0.20;;;;;;;;;;5071706;28;20060;-39
2022/02/20 00:31:55;;;;;;;0.50;0.30;;;;;;;;;;5071667;28;20025;-39
2022/02/20 00:34:20;;;;;;;0.30;0.30;;;;;;;;;;5070331;28;20086;-39
2022/02/20 00:36:46;;;;;;;1.10;0.50;;;;;;;;;;5071575;28;20081;-39
2022/02/20 00:39:11;;;;;;;0.30;0.30;;;;;;;;;;5070267;28;20035;-39
2022/02/20 00:41:37;;;;;;;0.40;0.40;;;;;;;;;;5071494;28;20056;-39
2022/02/20 00:44:02;;;;;;;0.32;0.22;;;;;;;;;;5071675;28;20075;-39
2022/02/20 00:46:27;;;;;;;0.30;0.30;;;;;;;;;;5071427;28;20020;-39
2022/02/20 00:48:53;;;;;;;0.28;0.28;;;;;;;;;;5070078;28;20089;-39
2022/02/20 00:51:18;;;;;;;0.30;0.30;;;;;;;;;;5071318;28;20057;-40
2022/02/20 00:53:44;;;;;;;0.32;0.32;;;;;;;;;;5071403;28;20028;-39
2022/02/20 00:56:09;;;;;;;0.85;0.45;;;;;;;;;;5069974;28;20035;-39
2022/02/20 00:58:35;;;;;;;0.30;0.30;;;;;;;;;;5071677;28;20029;-39
2022/02/20 01:01:02;;;;;;;0.85;0.52;;;;;;;;;;5069980;28;20048;-39
2022/02/20 01:03:27;;;;;;;1.30;0.68;;;;;;;;;;5071479;28;20437;-39
2022/02/20 01:05:54;;;;;;;1.45;0.30;;;;;;;;;;5069982;28;20066;-39
2022/02/20 01:08:19;;;;;;;1.60;0.57;;;;;;;;;;5069996;28;20040;-39
2022/02/20 01:10:45;;;;;;;0.38;0.38;;;;;;;;;;5071217;28;20020;-39
2022/02/20 01:13:10;;;;;;;1.05;0.50;;;;;;;;;;5069774;28;20036;-39
2022/02/20 01:15:36;;;;;;;0.32;0.25;;;;;;;;;;5071491;28;20095;-39
2022/02/20 01:18:02;;;;;;;0.63;0.40;;;;;;;;;;5069777;28;20482;-39
2022/02/20 01:20:27;;;;;;;0.38;0.38;;;;;;;;;;5069903;28;20028;-39
2022/02/20 01:22:53;;;;;;;0.45;0.45;;;;;;;;;;5069783;28;20072;-39
2022/02/20 01:25:19;;;;;;;0.50;0.50;;;;;;;;;;5070989;28;20023;-39
2022/02/20 01:27:45;;;;;;;0.40;0.40;;;;;;;;;;5069807;28;20127;-39
2022/02/20 01:30:10;;;;;;;0.30;0.30;;;;;;;;;;5070228;28;20024;-40
2022/02/20 01:32:36;;;;;;;0.30;0.30;;;;;;;;;;5075276;28;20027;-39
2022/02/20 01:35:02;;;;;;;0.30;0.30;;;;;;;;;;5074882;28;20025;-39
2022/02/20 01:37:28;;;;;;;0.60;0.60;;;;;;;;;;5074985;28;20055;-39
2022/02/20 01:39:54;;;;;;;1.23;0.40;;;;;;;;;;5073495;28;20020;-39
2022/02/20 01:42:22;;;;;;;0.82;0.43;;;;;;;;;;5073447;28;20129;-39
2022/02/20 01:44:48;;;;;;;0.52;0.52;;;;;;;;;;5073508;28;20050;-39
2022/02/20 01:47:14;;;;;;;0.95;0.32;;;;;;;;;;5073310;28;20040;-40
2022/02/20 01:49:41;;;;;;;0.63;0.32;;;;;;;;;;5073179;28;20608;-40
2022/02/20 01:52:07;;;;;;;0.40;0.40;;;;;;;;;;5074879;28;20029;-39
2022/02/20 01:54:33;;;;;;;0.28;0.28;;;;;;;;;;5073299;28;20109;-39
2022/02/20 01:56:58;;;;;;;0.70;0.55;;;;;;;;;;5073014;28;20044;-40
2022/02/20 01:59:42;;;;;;;0.60;0.60;;;;;;;;;;5074804;28;20024;-39
2022/02/20 02:02:31;;;;;;;0.25;0.25;;;;;;;;;;5066106;28;20048;-39
2022/02/20 02:05:03;;;;;;;0.28;0.28;;;;;;;;;;5072980;28;20509;-39
2022/02/20 02:07:34;;;;;;;0.20;0.20;;;;;;;;;;5073045;28;20090;-39
2022/02/20 02:10:27;;;;;;;0.60;0.40;;;;;;;;;;5074404;28;20024;-39
2022/02/20 02:13:09;;;;;;;0.38;0.38;;;;;;;;;;5072950;28;20064;-39
2022/02/20 02:16:01;;;;;;;0.35;0.35;;;;;;;;;;5050361;28;20040;-39
2022/02/20 02:18:42;;;;;;;0.77;0.35;;;;;;;;;;5072903;28;20033;-39
2022/02/20 02:21:26;;;;;;;0.30;0.30;;;;;;;;;;5074194;28;20035;-39
2022/02/20 02:24:11;;;;;;;0.45;0.45;;;;;;;;;;5074275;28;20082;-39
2022/02/20 02:27:01;;;;;;;0.30;0.30;;;;;;;;;;5074023;28;20032;-39
2022/02/20 02:30:01;;;;;;;1.40;0.60;;;;;;;;;;5056568;28;20122;-39
2022/02/20 02:32:27;;;;;;;0.40;0.40;;;;;;;;;;5072606;28;20032;-39
2022/02/20 02:34:52;;;;;;;0.30;0.30;;;;;;;;;;5072480;28;20021;-39
2022/02/20 02:37:22;;;;;;;3.35;0.55;;;;;;;;;;5072434;28;20032;-39
2022/02/20 02:39:48;;;;;;;1.63;0.50;;;;;;;;;;5072629;28;20025;-39
2022/02/20 02:42:15;;;;;;;0.85;0.50;;;;;;;;;;5071378;28;20044;-39
2022/02/20 02:44:43;;;;;;;0.90;0.40;;;;;;;;;;5072250;28;20040;-39
2022/02/20 02:47:09;;;;;;;0.50;0.50;;;;;;;;;;5072285;28;20032;-39
2022/02/20 02:49:35;;;;;;;0.65;0.30;;;;;;;;;;5072124;28;20044;-39
2022/02/20 02:52:00;;;;;;;0.20;0.20;;;;;;;;;;5073657;28;20039;-39
2022/02/20 02:54:26;;;;;;;0.65;0.65;;;;;;;;;;5072283;28;20386;-39
2022/02/20 02:56:51;;;;;;;0.40;0.40;;;;;;;;;;5073464;28;20036;-39
2022/02/20 02:59:18;;;;;;;1.05;0.40;;;;;;;;;;5073462;28;20020;-39
2022/02/20 03:01:44;;;;;;;0.40;0.40;;;;;;;;;;5071962;28;20041;-39
2022/02/20 03:04:10;;;;;;;1.20;0.60;;;;;;;;;;5073234;28;20032;-39
2022/02/20 03:06:35;;;;;;;0.40;0.40;;;;;;;;;;5072043;28;20025;-40
2022/02/20 03:09:07;;;;;;;0.45;0.45;;;;;;;;;;5073159;28;20016;-39
2022/02/20 03:11:34;;;;;;;0.93;0.75;;;;;;;;;;5073396;28;20060;-39
2022/02/20 03:13:59;;;;;;;0.40;0.40;;;;;;;;;;5073029;28;20541;-39
2022/02/20 03:16:27;;;;;;;0.60;0.60;;;;;;;;;;5071786;28;20039;-39
2022/02/20 03:18:52;;;;;;;0.95;0.60;;;;;;;;;;5071710;28;20028;-39
2022/02/20 03:21:22;;;;;;;0.20;0.20;;;;;;;;;;5071545;28;20028;-39
2022/02/20 03:23:50;;;;;;;0.82;0.40;;;;;;;;;;5071670;28;20666;-39
2022/02/20 03:26:16;;;;;;;0.57;0.57;;;;;;;;;;5071405;28;20043;-39
2022/02/20 03:28:42;;;;;;;0.45;0.45;;;;;;;;;;5055002;28;20028;-39
2022/02/20 03:31:09;;;;;;;0.38;0.38;;;;;;;;;;5071448;28;20036;-39
2022/02/20 03:33:35;;;;;;;0.30;0.30;;;;;;;;;;5071324;28;20029;-39
2022/02/20 03:36:02;;;;;;;0.43;0.43;;;;;;;;;;5054765;28;20475;-39
2022/02/20 03:38:30;;;;;;;0.95;0.40;;;;;;;;;;5071322;28;20568;-39
2022/02/20 03:40:56;;;;;;;1.10;0.40;;;;;;;;;;5071200;28;20036;-39
2022/02/20 03:43:27;;;;;;;0.60;0.50;;;;;;;;;;5071094;28;20035;-39
2022/02/20 03:45:59;;;;;;;0.50;0.50;;;;;;;;;;5071087;28;20403;-39
2022/02/20 03:48:26;;;;;;;0.70;0.40;;;;;;;;;;5072351;28;20493;-39
2022/02/20 03:51:05;;;;;;;0.30;0.30;;;;;;;;;;5070906;28;20127;-39
2022/02/20 03:53:32;;;;;;;1.27;0.60;;;;;;;;;;5070976;28;20029;-39
2022/02/20 03:56:00;;;;;;;1.15;0.50;;;;;;;;;;5070831;28;20111;-39
2022/02/20 03:58:31;;;;;;;0.77;0.40;;;;;;;;;;5070997;28;20074;-41
2022/02/20 04:00:56;;;;;;;0.70;0.50;;;;;;;;;;5072119;28;20380;-39
2022/02/20 04:03:38;;;;;;;0.52;0.35;;;;;;;;;;5070862;28;20064;-39
2022/02/20 04:06:05;;;;;;;0.30;0.30;;;;;;;;;;5070633;28;20478;-39
2022/02/20 04:08:31;;;;;;;0.30;0.30;;;;;;;;;;5072316;28;20027;-39
2022/02/20 04:11:05;;;;;;;0.68;0.50;;;;;;;;;;5070896;28;20024;-39
2022/02/20 04:13:37;;;;;;;0.40;0.40;;;;;;;;;;5070669;28;20116;-39
2022/02/20 04:16:06;;;;;;;0.35;0.35;;;;;;;;;;5070391;28;20038;-39
2022/02/20 04:18:35;;;;;;;0.50;0.50;;;;;;;;;;5070620;28;20017;-39
2022/02/20 04:21:07;;;;;;;1.40;0.50;;;;;;;;;;5070428;28;20112;-39
2022/02/20 04:23:34;;;;;;;0.60;0.60;;;;;;;;;;5070387;28;20490;-39
2022/02/20 04:26:02;;;;;;;1.75;0.75;;;;;;;;;;5070426;28;20024;-39
2022/02/20 04:28:31;;;;;;;0.40;0.40;;;;;;;;;;5070480;28;20061;-39
2022/02/20 04:30:57;;;;;;;1.58;0.40;;;;;;;;;;5070342;28;20023;-39
2022/02/20 04:33:25;;;;;;;0.30;0.30;;;;;;;;;;5070337;28;20039;-39
2022/02/20 04:35:54;;;;;;;0.25;0.25;;;;;;;;;;5070267;28;20379;-39
2022/02/20 04:38:20;;;;;;;0.45;0.45;;;;;;;;;;5070247;28;20032;-39
2022/02/20 04:40:46;;;;;;;0.82;0.75;;;;;;;;;;5070361;28;20020;-39
2022/02/20 04:43:16;;;;;;;0.40;0.40;;;;;;;;;;5070130;28;20097;-39
2022/02/20 04:45:44;;;;;;;0.50;0.50;;;;;;;;;;5070095;28;20784;-39
2022/02/20 04:48:14;;;;;;;0.45;0.45;;;;;;;;;;5070167;28;20033;-39
2022/02/20 04:50:40;;;;;;;0.60;0.50;;;;;;;;;;5069931;28;20074;-39
2022/02/20 04:53:12;;;;;;;0.43;0.43;;;;;;;;;;5070069;28;20094;-39
2022/02/20 04:55:40;;;;;;;0.40;0.40;;;;;;;;;;5070053;28;20048;-39
2022/02/20 04:58:05;;;;;;;0.60;0.47;;;;;;;;;;5070100;28;20024;-39
2022/02/20 05:00:32;;;;;;;2.75;0.93;;;;;;;;;;5070125;28;20437;-39
2022/02/20 05:02:57;;;;;;;0.57;0.45;;;;;;;;;;5071451;28;20035;-39
2022/02/20 05:05:24;;;;;;;0.60;0.60;;;;;;;;;;5069418;28;20481;-39
2022/02/20 05:07:50;;;;;;;1.35;1.00;;;;;;;;;;5069951;28;20119;-39
2022/02/20 05:10:16;;;;;;;0.30;0.30;;;;;;;;;;5069968;28;20060;-39
2022/02/20 05:12:41;;;;;;;1.58;0.82;;;;;;;;;;5069921;28;20028;-39
2022/02/20 05:15:07;;;;;;;0.40;0.40;;;;;;;;;;5069795;28;20356;-39
2022/02/20 05:17:39;;;;;;;1.42;0.70;;;;;;;;;;5069915;28;20031;-39
2022/02/20 05:20:05;;;;;;;1.13;0.70;;;;;;;;;;5069716;28;20025;-39
2022/02/20 05:22:31;;;;;;;1.02;0.60;;;;;;;;;;5069815;28;20574;-39
2022/02/20 05:25:00;;;;;;;0.90;0.50;;;;;;;;;;5069731;28;20028;-39
2022/02/20 05:27:30;;;;;;;0.80;0.80;;;;;;;;;;5069685;28;20027;-39
2022/02/20 05:29:56;;;;;;;0.85;0.52;;;;;;;;;;5069768;28;20024;-39
2022/02/20 05:32:23;;;;;;;0.60;0.60;;;;;;;;;;5069720;28;20021;-39
2022/02/20 05:34:55;;;;;;;;;;;;;;;;;;5070005;28;20024;-39
2022/02/20 05:37:23;;;;;;;0.57;0.55;;;;;;;;;;5069669;28;19938;-40
2022/02/20 05:39:49;;;;;;;0.40;0.40;;;;;;;;;;5069753;28;20107;-39
2022/02/20 05:42:15;;;;;;;0.63;0.50;;;;;;;;;;5069454;28;20234;-39
2022/02/20 05:44:47;;;;;;;1.40;0.77;;;;;;;;;;5069621;28;20036;-40
2022/02/20 05:47:14;;;;;;;0.40;0.40;;;;;;;;;;5069613;28;20029;-39
2022/02/20 05:49:41;;;;;;;0.98;0.52;;;;;;;;;;5069241;28;20027;-39
2022/02/20 05:52:07;;;;;;;2.25;1.35;;;;;;;;;;5069567;28;20024;-39
2022/02/20 05:54:40;;;;;;;1.48;0.55;;;;;;;;;;5069412;28;20028;-39
2022/02/20 05:57:07;;;;;;;0.30;0.30;;;;;;;;;;5069475;28;20032;-39
2022/02/20 05:59:37;;;;;;;1.95;0.80;;;;;;;;;;5069500;28;20021;-39
2022/02/20 06:02:02;;;;;;;0.73;0.63;;;;;;;;;;5070597;28;20514;-39
2022/02/20 06:04:28;;;;;;;1.25;1.15;;;;;;;;;;5069396;28;20386;-39
2022/02/20 06:07:06;;;;;;;0.80;0.80;;;;;;;;;;5070674;28;20028;-39
2022/02/20 06:09:31;;;;;;;1.30;0.70;;;;;;;;;;5070774;28;20173;-39
2022/02/20 06:12:26;;;;;;;0.75;0.68;;;;;;;;;;5054111;28;20036;-39
2022/02/20 06:15:01;;;;;;;0.50;0.50;;;;;;;;;;5070525;28;20051;-39
2022/02/20 06:17:53;;;;;;;3.58;1.00;;;;;;;;;;5063649;28;20040;-39
2022/02/20 06:20:41;;;;;;;0.65;0.55;;;;;;;;;;5074022;28;20033;-39
2022/02/20 06:23:22;;;;;;;1.63;1.15;;;;;;;;;;5072716;28;20417;-39
2022/02/20 06:25:56;;;;;;;0.75;0.50;;;;;;;;;;5072696;28;20024;-40
2022/02/20 06:28:25;;;;;;;0.90;0.70;;;;;;;;;;5072666;28;20028;-39
2022/02/20 06:30:52;;;;;;;1.02;0.65;;;;;;;;;;5072752;28;20043;-39
2022/02/20 06:33:24;;;;;;;2.95;1.13;;;;;;;;;;5072617;28;20028;-39
2022/02/20 06:35:51;;;;;;;1.27;0.63;;;;;;;;;;5072584;28;20115;-39
2022/02/20 06:38:17;;;;;;;4.13;0.70;;;;;;;;;;5072504;28;20115;-39
2022/02/20 06:40:46;;;;;;;4.35;1.15;;;;;;;;;;5072546;28;20102;-40
2022/02/20 06:43:14;;;;;;;0.47;0.47;;;;;;;;;;5072327;28;20047;-39
2022/02/20 06:45:41;;;;;;;0.98;0.65;;;;;;;;;;5072322;28;20025;-39
2022/02/20 06:48:25;;;;;;;1.30;0.65;;;;;;;;;;5074052;28;20027;-39
2022/02/20 06:51:29;;;;;;;4.38;1.02;;;;;;;;;;5062471;28;20587;-39
2022/02/20 06:54:27;;;;;;;0.60;0.40;;;;;;;;;;5073407;28;20081;-39
2022/02/20 06:57:06;;;;;;;2.20;0.60;;;;;;;;;;5072183;28;20040;-39
2022/02/20 06:59:32;;;;;;;0.77;0.57;;;;;;;;;;5073728;28;20610;-39
2022/02/20 07:01:57;;;;;;;1.45;0.70;;;;;;;;;;5073263;28;20481;-39
2022/02/20 07:04:23;;;;;;;1.05;0.93;;;;;;;;;;5073604;28;20158;-40
2022/02/20 07:06:48;;;;;;;0.70;0.68;;;;;;;;;;5073314;28;20020;-39
2022/02/20 07:09:14;;;;;;;2.58;1.40;;;;;;;;;;5073521;28;20059;-39
2022/02/20 07:11:40;;;;;;;1.90;0.75;;;;;;;;;;5073262;28;20066;-39
2022/02/20 07:14:06;;;;;;;0.98;0.55;;;;;;;;;;5073241;28;20038;-40
2022/02/20 07:16:31;;;;;;;2.45;1.20;;;;;;;;;;5073075;28;20028;-39
2022/02/20 07:18:57;;;;;;;1.60;1.02;;;;;;;;;;5073114;28;20033;-39
2022/02/20 07:21:24;;;;;;;1.08;0.75;;;;;;;;;;5073117;28;20021;-40
2022/02/20 07:23:50;;;;;;;1.40;0.60;;;;;;;;;;5072964;28;20051;-39
2022/02/20 07:26:15;;;;;;;1.17;0.90;;;;;;;;;;5072671;28;20463;-39
2022/02/20 07:28:41;;;;;;;1.38;0.77;;;;;;;;;;5072657;28;20086;-39
2022/02/20 07:31:07;;;;;;;1.85;0.52;;;;;;;;;;5072711;28;20020;-40
2022/02/20 07:33:33;;;;;;;1.08;0.75;;;;;;;;;;5073059;28;20442;-39
2022/02/20 07:35:59;;;;;;;1.15;0.95;;;;;;;;;;5072506;28;20052;-39
2022/02/20 07:38:25;;;;;;;0.47;0.45;;;;;;;;;;5072910;28;20067;-39
2022/02/20 07:40:53;;;;;;;0.82;0.73;;;;;;;;;;5072649;28;20063;-40
2022/02/20 07:43:19;;;;;;;1.40;0.60;;;;;;;;;;5072371;28;20479;-39
2022/02/20 07:45:44;;;;;;;0.60;0.60;;;;;;;;;;5072364;28;20078;-39
2022/02/20 07:48:10;;;;;;;0.45;0.43;;;;;;;;;;5072468;28;20051;-39
2022/02/20 07:50:36;;;;;;;0.70;0.70;;;;;;;;;;5072162;28;20101;-39
2022/02/20 07:53:03;;;;;;;1.02;0.70;;;;;;;;;;5072332;28;20052;-39
2022/02/20 07:55:29;;;;;;;1.45;0.60;;;;;;;;;;5072633;28;20135;-39
2022/02/20 07:57:55;;;;;;;0.50;0.50;;;;;;;;;;5070790;28;20579;-39
2022/02/20 08:00:22;;;;;;;0.70;0.47;;;;;;;;;;5072167;28;20119;-39
2022/02/20 08:02:47;;;;;;;2.92;0.70;;;;;;;;;;5070812;28;20491;-39
2022/02/20 08:05:14;;;;;;;0.77;0.70;;;;;;;;;;5071967;28;20047;-39
2022/02/20 08:07:40;;;;;;;0.80;0.68;;;;;;;;;;5071935;28;20036;-39
2022/02/20 08:10:06;;;;;;;0.93;0.65;;;;;;;;;;5071945;28;20392;-39
2022/02/20 08:12:32;;;;;;;1.75;0.90;;;;;;;;;;5071952;28;20032;-39
2022/02/20 08:14:58;;;;;;;1.63;0.70;;;;;;;;;;5072112;28;20028;-39
2022/02/20 08:17:23;;;;;;;0.88;0.63;;;;;;;;;;5070565;28;20090;-39
2022/02/20 08:19:49;;;;;;;1.05;0.63;;;;;;;;;;5071888;28;20077;-39
2022/02/20 08:22:15;;;;;;;2.47;1.20;;;;;;;;;;5071616;28;20028;-39
2022/02/20 08:24:42;;;;;;;1.92;0.75;;;;;;;;;;5071779;28;20028;-39
2022/02/20 08:27:09;;;;;;;3.75;1.50;;;;;;;;;;5071739;28;20558;-39
2022/02/20 08:29:35;;;;;;;1.67;0.95;;;;;;;;;;5070482;28;20489;-39
2022/02/20 08:32:02;;;;;;;2.72;1.95;;;;;;;;;;5071548;28;20025;-39
2022/02/20 08:34:29;;;;;;;0.70;0.70;;;;;;;;;;5071565;28;20482;-43
2022/02/20 08:36:55;;;;;;;0.98;0.80;;;;;;;;;;5071775;28;20052;-39
2022/02/20 08:39:20;;;;;;;0.98;0.77;;;;;;;;;;5071273;28;20463;-39
2022/02/20 08:41:46;;;;;;;0.63;0.63;;;;;;;;;;5071318;28;20094;-39
2022/02/20 08:44:12;;;;;;;3.10;0.75;;;;;;;;;;5071710;28;20052;-40
2022/02/20 08:46:38;;;;;;;1.23;0.60;;;;;;;;;;5071432;28;20020;-39
2022/02/20 08:49:04;;;;;;;1.13;0.98;;;;;;;;;;5071672;28;20043;-39
2022/02/20 08:51:31;;;;;;;1.27;0.60;;;;;;;;;;5071308;28;20056;-39
2022/02/20 08:53:56;;;;;;;2.05;0.98;;;;;;;;;;5071288;28;20025;-39
2022/02/20 08:56:26;;;;;;;1.15;0.82;;;;;;;;;;5071273;28;20035;-39
2022/02/20 08:58:52;;;;;;;1.55;1.27;;;;;;;;;;5071635;28;20032;-39
2022/02/20 09:01:17;;;;;;;1.92;0.90;;;;;;;;;;5071247;28;20035;-39
2022/02/20 09:03:43;;;;;;;3.03;1.15;;;;;;;;;;5071195;28;20062;-39
2022/02/20 09:06:08;;;;;;;0.98;0.88;;;;;;;;;;5071446;28;20024;-40
2022/02/20 09:08:34;;;;;;;0.73;0.70;;;;;;;;;;5071534;28;20107;-39
2022/02/20 09:11:00;;;;;;;2.33;1.08;;;;;;;;;;5071166;28;20055;-39
2022/02/20 09:13:26;;;;;;;1.02;0.88;;;;;;;;;;5070059;28;20125;-39
2022/02/20 09:15:52;;;;;;;3.42;1.05;;;;;;;;;;5071398;28;20067;-40
2022/02/20 09:18:18;;;;;;;0.88;0.77;;;;;;;;;;5071071;28;20482;-39
2022/02/20 09:20:43;;;;;;;1.95;0.90;;;;;;;;;;5071178;28;20089;-39
2022/02/20 09:23:09;;;;;;;1.10;1.00;;;;;;;;;;5070866;28;20021;-39
2022/02/20 09:25:35;;;;;;;1.50;1.08;;;;;;;;;;5071362;28;20108;-39
2022/02/20 09:28:00;;;;;;;1.30;0.95;;;;;;;;;;5071136;28;20099;-39
2022/02/20 09:30:25;;;;;;;0.80;0.70;;;;;;;;;;5071009;28;20592;-39
2022/02/20 09:32:51;;;;;;;3.00;0.85;;;;;;;;;;5071054;28;20483;-39
2022/02/20 09:35:17;;;;;;;1.60;0.90;;;;;;;;;;5071203;28;20471;-39
2022/02/20 09:37:43;;;;;;;1.00;0.80;;;;;;;;;;5070884;28;20478;-39
2022/02/20 09:40:10;;;;;;;2.13;1.20;;;;;;;;;;5070969;28;20074;-39
2022/02/20 09:42:36;;;;;;;2.90;1.20;;;;;;;;;;5070908;28;20021;-39
2022/02/20 09:45:02;;;;;;;1.42;1.15;;;;;;;;;;5070819;28;20032;-40
2022/02/20 09:47:28;;;;;;;1.40;1.00;;;;;;;;;;5071045;28;20076;-39
2022/02/20 09:49:57;;;;;;;0.82;0.82;;;;;;;;;;5070670;28;20136;-39
2022/02/20 11:29:47;;;;;;;0.75;0.68;;;;;;;;;;5049493;28;20412;-40
2022/02/20 11:32:13;;;;;;;3.13;0.77;;;;;;;;;;5072826;28;20036;-39
2022/02/20 11:34:42;;;;;;;0.60;0.60;;;;;;;;;;5072758;28;20086;-39
2022/02/20 11:37:08;;;;;;;0.60;0.60;;;;;;;;;;5072655;28;20631;-39
2022/02/20 11:39:33;;;;;;;3.60;0.77;;;;;;;;;;5072658;28;20031;-39
2022/02/20 11:42:05;;;;;;;0.95;0.80;;;;;;;;;;5072885;28;20058;-40
2022/02/20 11:44:43;;;;;;;1.10;0.75;;;;;;;;;;5072484;28;20044;-39
2022/02/20 11:47:09;;;;;;;0.60;0.60;;;;;;;;;;5072584;28;20063;-39
2022/02/20 11:49:34;;;;;;;1.10;0.88;;;;;;;;;;5072497;28;20052;-39
2022/02/20 11:52:09;;;;;;;0.98;0.63;;;;;;;;;;5072418;28;20082;-39
2022/02/20 11:54:36;;;;;;;1.05;0.70;;;;;;;;;;5072368;28;20028;-39
2022/02/20 11:57:15;;;;;;;1.10;0.60;;;;;;;;;;5072317;28;20025;-39
2022/02/20 12:00:01;;;;;;;1.13;0.70;;;;;;;;;;5072333;28;20044;-39
2022/02/20 12:02:27;;;;;;;0.95;0.77;;;;;;;;;;5061371;28;20044;-39
2022/02/20 12:04:55;;;;;;;1.08;0.70;;;;;;;;;;5072323;28;20066;-39
2022/02/20 12:07:29;;;;;;;1.98;0.75;;;;;;;;;;5072257;28;20056;-41
2022/02/20 12:10:13;;;;;;;0.93;0.80;;;;;;;;;;5072022;28;20203;-39
2022/02/20 12:12:39;;;;;;;0.75;0.60;;;;;;;;;;5072265;28;20418;-39
2022/02/20 12:15:23;;;;;;;1.98;0.80;;;;;;;;;;5071709;28;20024;-39
2022/02/20 12:17:58;;;;;;;0.50;0.35;;;;;;;;;;5071943;28;20071;-39
2022/02/20 12:20:43;;;;;;;3.03;1.00;;;;;;;;;;5071719;28;20033;-39
2022/02/20 12:23:09;;;;;;;1.10;0.60;;;;;;;;;;5071974;28;20063;-39
2022/02/20 12:25:36;;;;;;;1.48;1.08;;;;;;;;;;5071793;28;20016;-39
2022/02/20 12:28:09;;;;;;;1.08;0.80;;;;;;;;;;5071667;28;20040;-39
2022/02/20 12:30:41;;;;;;;0.80;0.73;;;;;;;;;;5071569;28;20078;-39
2022/02/20 12:33:07;;;;;;;1.02;0.70;;;;;;;;;;5071620;28;20032;-39
2022/02/20 12:35:32;;;;;;;0.80;0.70;;;;;;;;;;5071779;28;20020;-39
2022/02/20 12:37:58;;;;;;;1.95;0.68;;;;;;;;;;5071701;28;20398;-39
2022/02/20 12:40:25;;;;;;;0.93;0.68;;;;;;;;;;5071442;28;20021;-39
2022/02/20 12:42:55;;;;;;;0.50;0.50;;;;;;;;;;5071506;28;20566;-39
2022/02/20 12:45:28;;;;;;;0.85;0.68;;;;;;;;;;5071426;28;20036;-39
2022/02/20 12:47:54;;;;;;;;;;;;;;;;;;5072234;28;20028;-39
2022/02/20 12:50:31;;;;;;;0.63;0.52;;;;;;;;;;5071380;28;19904;-39
2022/02/20 12:52:57;;;;;;;2.03;0.70;;;;;;;;;;5071503;28;20036;-39
2022/02/20 12:55:25;;;;;;;0.60;0.40;;;;;;;;;;5071214;28;20461;-39
2022/02/20 12:57:56;;;;;;;0.63;0.63;;;;;;;;;;5071432;28;20062;-39
2022/02/20 13:00:21;;;;;;;1.05;0.90;;;;;;;;;;5071370;28;20036;-40
2022/02/20 13:02:57;;;;;;;0.93;0.70;;;;;;;;;;5071245;28;20043;-39
2022/02/20 13:05:39;;;;;;;1.33;0.90;;;;;;;;;;5071324;28;20123;-39
2022/02/20 13:08:08;;;;;;;0.82;0.70;;;;;;;;;;5071230;28;20039;-39
2022/02/20 13:10:36;;;;;;;0.85;0.70;;;;;;;;;;5071245;28;20025;-39
2022/02/20 13:13:03;;;;;;;0.63;0.52;;;;;;;;;;5071207;28;20032;-39
2022/02/20 13:15:34;;;;;;;1.58;0.80;;;;;;;;;;5071453;28;20013;-39
2022/02/20 13:18:04;;;;;;;1.35;0.90;;;;;;;;;;5071462;28;20029;-39
2022/02/20 13:20:31;;;;;;;0.80;0.77;;;;;;;;;;5071251;28;20033;-40
2022/02/20 13:22:58;;;;;;;0.85;0.60;;;;;;;;;;5071262;28;20036;-39
2022/02/20 13:25:24;;;;;;;0.55;0.55;;;;;;;;;;5070964;28;20044;-39
2022/02/20 13:27:50;;;;;;;1.40;0.90;;;;;;;;;;5074751;28;20067;-39
2022/02/20 13:30:26;;;;;;;1.00;0.90;;;;;;;;;;5075185;28;20363;-39
2022/02/20 13:32:51;;;;;;;1.85;0.90;;;;;;;;;;5075107;28;20038;-39
2022/02/20 13:35:32;;;;;;;1.77;0.85;;;;;;;;;;5075257;28;20021;-39
2022/02/20 13:38:07;;;;;;;0.90;0.90;;;;;;;;;;5075052;28;20478;-39
2022/02/20 13:40:42;;;;;;;1.42;0.90;;;;;;;;;;5074943;28;20090;-39
2022/02/20 13:43:13;;;;;;;1.40;0.90;;;;;;;;;;5074856;28;20048;-39
2022/02/20 13:46:08;;;;;;;1.90;0.80;;;;;;;;;;5074676;28;20048;-39
2022/02/20 13:48:42;;;;;;;1.17;0.90;;;;;;;;;;5061783;28;20490;-39
2022/02/20 13:51:15;;;;;;;2.58;1.10;;;;;;;;;;5074793;28;20031;-39
2022/02/20 13:53:44;;;;;;;0.95;0.85;;;;;;;;;;5074569;28;20024;-39
2022/02/20 13:56:11;;;;;;;1.48;0.93;;;;;;;;;;5074708;28;20455;-39
2022/02/20 13:58:36;;;;;;;0.88;0.70;;;;;;;;;;5074611;28;20097;-40
2022/02/20 14:01:02;;;;;;;1.67;0.95;;;;;;;;;;5074551;28;20024;-40
2022/02/20 14:03:28;;;;;;;1.05;0.98;;;;;;;;;;5074395;28;20094;-39
2022/02/20 14:05:53;;;;;;;2.20;0.90;;;;;;;;;;5074656;28;20025;-39
2022/02/20 14:08:19;;;;;;;0.85;0.70;;;;;;;;;;5074592;28;20382;-39
2022/02/20 14:11:11;;;;;;;1.33;1.00;;;;;;;;;;5074453;28;20044;-39
2022/02/20 14:13:38;;;;;;;0.85;0.80;;;;;;;;;;5071351;28;20119;-39
2022/02/20 14:16:04;;;;;;;1.60;1.13;;;;;;;;;;5074502;28;20021;-39
2022/02/20 14:18:37;;;;;;;2.20;0.77;;;;;;;;;;5074504;28;20081;-39
2022/02/20 14:21:10;;;;;;;1.00;0.93;;;;;;;;;;5074370;28;20028;-39
2022/02/20 14:23:36;;;;;;;0.57;0.57;;;;;;;;;;5074122;28;20483;-44
2022/02/20 14:26:03;;;;;;;1.13;0.82;;;;;;;;;;5074132;28;20029;-39
2022/02/20 14:28:32;;;;;;;1.38;0.85;;;;;;;;;;5073887;28;20034;-40
2022/02/20 14:31:19;;;;;;;2.38;1.08;;;;;;;;;;5072787;28;20447;-39
2022/02/20 14:33:45;;;;;;;1.08;0.82;;;;;;;;;;5074246;28;20173;-39
2022/02/20 14:36:15;;;;;;;0.88;0.88;;;;;;;;;;5074052;28;20032;-40
2022/02/20 14:38:42;;;;;;;1.50;1.33;;;;;;;;;;5072942;28;20115;-39
2022/02/20 14:41:12;;;;;;;1.05;0.95;;;;;;;;;;5073808;28;20479;-39
2022/02/20 14:43:41;;;;;;;1.15;0.90;;;;;;;;;;5073854;28;20040;-40
2022/02/20 14:46:07;;;;;;;6.45;1.23;;;;;;;;;;5073718;28;20024;-39
2022/02/20 14:48:34;;;;;;;2.33;1.45;;;;;;;;;;5074017;28;20039;-39
2022/02/20 14:51:04;;;;;;;1.67;1.17;;;;;;;;;;5073634;28;20474;-39
2022/02/20 14:53:31;;;;;;;1.65;0.88;;;;;;;;;;5073553;28;20479;-39
2022/02/20 14:55:56;;;;;;;2.53;1.17;;;;;;;;;;5073758;28;20139;-39
2022/02/20 14:58:22;;;;;;;1.45;1.35;;;;;;;;;;5073544;28;20107;-39
2022/02/20 15:00:47;;;;;;;1.20;1.10;;;;;;;;;;5073473;28;20067;-39
2022/02/20 15:03:13;;;;;;;2.70;1.40;;;;;;;;;;5073622;28;20040;-39
2022/02/20 15:05:39;;;;;;;1.90;1.10;;;;;;;;;;5073374;28;20021;-42
2022/02/20 15:08:05;;;;;;;2.83;1.35;;;;;;;;;;5073302;28;20493;-39
2022/02/20 15:10:32;;;;;;;2.22;1.10;;;;;;;;;;5073511;28;20024;-39
2022/02/20 15:12:58;;;;;;;1.38;0.70;;;;;;;;;;5073048;28;20083;-39
2022/02/20 15:15:24;;;;;;;3.50;1.20;;;;;;;;;;5073208;28;20070;-39
2022/02/20 15:17:49;;;;;;;2.03;1.55;;;;;;;;;;5073409;28;20117;-39
2022/02/20 15:20:15;;;;;;;1.13;1.02;;;;;;;;;;5072991;28;20032;-39
2022/02/20 15:22:41;;;;;;;0.95;0.80;;;;;;;;;;5073052;28;20040;-39
2022/02/20 15:25:06;;;;;;;1.20;0.95;;;;;;;;;;5073197;28;20025;-39
2022/02/20 15:27:36;;;;;;;1.45;0.80;;;;;;;;;;5073320;28;20078;-40
2022/02/20 15:30:02;;;;;;;4.13;1.88;;;;;;;;;;5072815;28;20116;-40
2022/02/20 15:32:28;;;;;;;3.03;1.40;;;;;;;;;;5073016;28;20032;-39
2022/02/20 15:34:54;;;;;;;1.42;1.27;;;;;;;;;;5072744;28;20107;-39
2022/02/20 15:37:20;;;;;;;1.20;1.10;;;;;;;;;;5072665;28;20143;-39
2022/02/20 15:39:48;;;;;;;3.58;1.23;;;;;;;;;;5072673;28;20020;-39
2022/02/20 15:42:15;;;;;;;1.17;1.00;;;;;;;;;;5072841;28;20040;-39
2022/02/20 15:44:42;;;;;;;3.03;1.50;;;;;;;;;;5072500;28;20029;-39
2022/02/20 15:47:08;;;;;;;3.75;1.10;;;;;;;;;;5072445;28;20035;-40
2022/02/20 15:49:35;;;;;;;1.48;1.38;;;;;;;;;;5072155;28;20103;-39
2022/02/20 15:52:02;;;;;;;5.35;1.58;;;;;;;;;;5072459;28;20036;-41
2022/02/20 15:54:28;;;;;;;6.18;1.95;;;;;;;;;;5072282;28;20144;-39
2022/02/20 15:56:53;;;;;;;3.70;2.05;;;;;;;;;;5072375;28;20056;-39
2022/02/20 15:59:26;;;;;;;4.38;2.05;;;;;;;;;;5072297;28;20458;-39
2022/02/20 16:01:55;;;;;;;3.13;1.73;;;;;;;;;;5072091;28;20056;-39
2022/02/20 16:04:21;;;;;;;3.28;1.90;;;;;;;;;;5072207;28;20064;-40
2022/02/20 16:06:47;;;;;;;3.60;2.05;;;;;;;;;;5072461;28;20098;-39
2022/02/20 16:09:13;;;;;;;3.55;2.40;;;;;;;;;;5072262;28;20055;-39
2022/02/20 16:11:39;;;;;;;3.50;1.75;;;;;;;;;;5072037;28;20475;-39
2022/02/20 16:14:08;;;;;;;6.45;3.33;;;;;;;;;;5070683;28;20024;-39
2022/02/20 16:16:33;;;;;;;2.75;2.20;;;;;;;;;;5072233;28;20123;-39
2022/02/20 16:19:00;;;;;;;6.60;2.00;;;;;;;;;;5071987;28;20115;-40
2022/02/20 16:21:26;;;;;;;1.95;1.58;;;;;;;;;;5071944;28;20036;-39
2022/02/20 16:23:52;;;;;;;2.78;2.15;;;;;;;;;;5071677;28;20395;-39
2022/02/20 16:26:18;;;;;;;2.00;1.70;;;;;;;;;;5071650;28;20027;-39
2022/02/20 16:28:47;;;;;;;3.45;1.52;;;;;;;;;;5072042;28;20031;-39